createdAt,value
2023-01-13T00:00:51.746Z,99461.94
2023-01-13T00:03:53.814Z,99463.56
2023-01-13T00:06:55.866Z,99462.63
2023-01-13T00:09:57.626Z,99470.66
2023-01-13T00:12:59.573Z,99463.44
2023-01-13T00:16:15.785Z,99456.22
2023-01-13T00:19:18.014Z,99455.44
2023-01-13T00:22:20.100Z,99439.81
2023-01-13T00:25:22.113Z,99452.31
2023-01-13T00:28:25.130Z,99430.44
2023-01-13T00:31:29.179Z,99418.50
2023-01-13T00:34:31.300Z,99405.19
2023-01-13T00:37:37.054Z,99409.38
2023-01-13T00:40:39.124Z,99390.81
2023-01-13T00:43:42.694Z,99382.66
2023-01-13T00:46:44.991Z,99401.94
2023-01-13T00:49:46.938Z,99390.13
2023-01-13T00:52:48.911Z,99396.78
2023-01-13T00:55:58.540Z,99396.25
2023-01-13T00:59:04.229Z,99402.31
2023-01-13T01:02:06.349Z,99412.41
2023-01-13T01:05:08.975Z,99406.16
2023-01-13T01:08:10.949Z,99398.94
2023-01-13T01:11:28.114Z,99421.88
2023-01-13T01:14:30.144Z,99404.50
2023-01-13T01:17:32.076Z,99395.97
2023-01-13T01:20:34.133Z,99392.56
2023-01-13T01:23:37.365Z,99410.34
2023-01-13T01:26:39.283Z,99417.69
2023-01-13T01:29:41.001Z,99415.38
2023-01-13T01:32:42.924Z,99422.97
2023-01-13T01:35:45.044Z,99419.47
2023-01-13T01:38:48.181Z,99433.16
2023-01-13T01:42:08.712Z,99425.16
2023-01-13T01:45:22.384Z,99413.91
2023-01-13T01:48:24.466Z,99412.25
2023-01-13T01:51:30.943Z,99406.81
2023-01-13T01:54:39.566Z,99404.50
2023-01-13T01:57:57.028Z,99384.03
2023-01-13T02:01:07.149Z,99381.69
2023-01-13T02:04:17.373Z,99374.50
2023-01-13T02:07:24.052Z,99369.31
2023-01-13T02:10:28.901Z,99359.56
2023-01-13T02:13:31.203Z,99359.94
2023-01-13T02:16:33.704Z,99358.72
2023-01-13T02:20:13.129Z,99349.63
2023-01-13T02:23:52.705Z,99342.97
2023-01-13T02:27:34.643Z,99331.84
2023-01-13T02:31:33.990Z,99320.88
2023-01-13T02:35:00.643Z,99307.84
2023-01-13T02:38:03.495Z,99301.34
2023-01-13T02:41:31.326Z,99325.63
2023-01-13T02:44:46.595Z,99339.03
2023-01-13T02:47:50.741Z,99347.13
2023-01-13T02:51:12.285Z,99367.50
2023-01-13T02:54:20.011Z,99345.81
2023-01-13T02:57:25.309Z,99347.00
2023-01-13T03:00:28.743Z,99352.69
2023-01-13T03:03:30.716Z,99342.22
2023-01-13T03:07:06.361Z,99341.41
2023-01-13T03:10:34.311Z,99356.13
2023-01-13T03:13:45.530Z,99346.09
2023-01-13T03:17:17.129Z,99354.41
2023-01-13T03:20:32.551Z,99311.22
2023-01-13T03:23:59.133Z,99321.53
2023-01-13T03:27:03.960Z,99326.25
2023-01-13T03:30:24.383Z,99360.94
2023-01-13T03:33:31.656Z,99337.78
2023-01-13T03:36:36.581Z,99352.13
2023-01-13T03:39:43.976Z,99355.94
2023-01-13T03:43:12.795Z,99344.97
2023-01-13T03:46:23.864Z,99352.91
2023-01-13T03:49:33.941Z,99359.56
2023-01-13T03:52:40.497Z,99336.75
2023-01-13T03:55:47.918Z,99338.56
2023-01-13T03:58:52.761Z,99335.25
2023-01-13T04:02:07.013Z,99344.25
2023-01-13T04:05:10.778Z,99335.22
2023-01-13T04:08:17.036Z,99335.84
2023-01-13T04:11:26.723Z,99334.72
2023-01-13T04:14:29.344Z,99333.69
2023-01-13T04:17:32.149Z,99340.44
2023-01-13T04:20:33.761Z,99334.59
2023-01-13T04:23:35.581Z,99335.22
2023-01-13T04:26:37.244Z,99341.38
2023-01-13T04:29:39.037Z,99345.97
2023-01-13T04:32:41.310Z,99356.31
2023-01-13T04:35:44.902Z,99354.47
2023-01-13T04:38:46.637Z,99343.66
2023-01-13T04:42:04.032Z,99346.88
2023-01-13T04:45:09.785Z,99351.97
2023-01-13T04:48:11.966Z,99346.06
2023-01-13T04:51:13.726Z,99336.94
2023-01-13T04:54:16.321Z,99334.81
2023-01-13T04:57:19.351Z,99339.75
2023-01-13T05:00:23.216Z,99334.38
2023-01-13T05:03:26.667Z,99323.22
2023-01-13T05:06:28.385Z,99323.28
2023-01-13T05:09:30.124Z,99326.44
2023-01-13T05:12:50.794Z,99326.22
2023-01-13T05:16:11.479Z,99319.13
2023-01-13T05:19:13.487Z,99332.91
2023-01-13T05:22:34.022Z,99340.16
2023-01-13T05:25:39.643Z,99327.06
2023-01-13T05:28:41.291Z,99324.38
2023-01-13T05:31:42.875Z,99341.94
2023-01-13T05:34:44.719Z,99320.25
2023-01-13T05:37:46.795Z,99325.91
2023-01-13T05:41:06.841Z,99314.63
2023-01-13T05:44:08.498Z,99300.19
2023-01-13T05:47:10.878Z,99313.03
2023-01-13T05:50:12.593Z,99318.84
2023-01-13T05:53:14.334Z,99314.88
2023-01-13T05:56:18.163Z,99306.75
2023-01-13T05:59:19.810Z,99306.78
2023-01-13T06:02:21.712Z,99305.63
2023-01-13T06:05:23.610Z,99311.66
2023-01-13T06:08:26.255Z,99306.88
2023-01-13T06:11:28.041Z,99287.75
2023-01-13T06:14:40.220Z,99292.72
2023-01-13T06:17:41.852Z,99297.56
2023-01-13T06:20:43.542Z,99300.78
2023-01-13T06:23:45.247Z,99305.41
2023-01-13T06:26:46.930Z,99316.16
2023-01-13T06:29:49.203Z,99312.28
2023-01-13T06:32:55.516Z,99301.56
2023-01-13T06:36:01.372Z,99300.97
2023-01-13T06:39:04.854Z,99304.16
2023-01-13T06:42:25.940Z,99296.94
2023-01-13T06:45:29.875Z,99296.19
2023-01-13T06:48:35.121Z,99293.56
2023-01-13T06:51:37.327Z,99282.91
2023-01-13T06:54:38.954Z,99284.00
2023-01-13T06:57:57.727Z,99287.84
2023-01-13T07:01:01.181Z,99307.50
2023-01-13T07:04:57.857Z,99315.72
2023-01-13T07:08:31.497Z,99333.00
2023-01-13T07:11:33.253Z,99334.22
2023-01-13T07:14:54.293Z,99313.84
2023-01-13T07:17:55.852Z,99312.59
2023-01-13T07:21:02.766Z,99321.00
2023-01-13T07:24:04.622Z,99322.69
2023-01-13T07:27:06.221Z,99319.06
2023-01-13T07:30:08.760Z,99326.66
2023-01-13T07:33:10.454Z,99337.44
2023-01-13T07:36:12.527Z,99337.25
2023-01-13T07:39:14.740Z,99347.09
2023-01-13T07:42:36.451Z,99344.00
2023-01-13T07:45:38.327Z,99352.47
2023-01-13T07:48:40.340Z,99352.53
2023-01-13T07:51:42.223Z,99344.13
2023-01-13T07:54:43.812Z,99343.75
2023-01-13T07:57:45.640Z,99350.34
2023-01-13T08:00:47.431Z,99350.69
2023-01-13T08:03:49.109Z,99354.72
2023-01-13T08:06:50.770Z,99349.78
2023-01-13T08:09:52.545Z,99357.88
2023-01-13T08:13:12.782Z,99361.63
2023-01-13T08:16:15.729Z,99358.72
2023-01-13T08:19:17.806Z,99350.66
2023-01-13T08:22:19.507Z,99357.28
2023-01-13T08:25:21.081Z,99362.91
2023-01-13T08:28:24.122Z,99365.59
2023-01-13T08:31:26.067Z,99373.31
2023-01-13T08:34:27.790Z,99379.25
2023-01-13T08:37:29.335Z,99384.47
2023-01-13T08:40:31.563Z,99382.97
2023-01-13T08:43:33.203Z,99383.06
2023-01-13T08:46:35.887Z,99379.25
2023-01-13T08:49:37.685Z,99385.91
2023-01-13T08:52:39.807Z,99377.97
2023-01-13T08:55:41.635Z,99378.00
2023-01-13T08:58:43.427Z,99389.25
2023-01-13T09:01:45.773Z,99388.34
2023-01-13T09:04:48.737Z,99384.84
2023-01-13T09:07:50.401Z,99387.25
2023-01-13T09:10:52.085Z,99378.75
2023-01-13T09:13:54.108Z,99383.31
2023-01-13T09:16:56.250Z,99393.41
2023-01-13T09:19:57.915Z,99398.56
2023-01-13T09:22:59.762Z,99408.56
2023-01-13T09:26:01.356Z,99405.34
2023-01-13T09:29:03.214Z,99402.28
2023-01-13T09:32:05.524Z,99416.28
2023-01-13T09:35:07.806Z,99409.34
2023-01-13T09:38:09.491Z,99421.28
2023-01-13T09:41:42.518Z,99415.06
2023-01-13T09:44:57.986Z,99411.53
2023-01-13T09:48:11.857Z,99405.28
2023-01-13T09:51:24.484Z,99423.47
2023-01-13T09:54:33.679Z,99424.69
2023-01-13T09:57:38.099Z,99436.69
2023-01-13T10:00:47.235Z,99432.34
2023-01-13T10:03:49.649Z,99432.19
2023-01-13T10:06:56.482Z,99426.22
2023-01-13T10:09:59.667Z,99421.69
2023-01-13T10:13:14.284Z,99431.91
2023-01-13T10:16:42.527Z,99433.09
2023-01-13T10:19:50.579Z,99419.13
2023-01-13T10:23:05.298Z,99433.22
2023-01-13T10:26:18.035Z,99430.25
2023-01-13T10:29:27.992Z,99433.22
2023-01-13T10:32:30.176Z,99424.53
2023-01-13T10:35:53.682Z,99423.19
2023-01-13T10:39:07.817Z,99416.53
2023-01-13T10:42:15.233Z,99432.69
2023-01-13T10:45:25.670Z,99417.63
2023-01-13T10:48:59.729Z,99421.69
2023-01-13T10:52:03.063Z,99420.25
2023-01-13T10:55:26.248Z,99404.50
2023-01-13T10:58:28.135Z,99399.50
2023-01-13T11:01:30.501Z,99418.31
2023-01-13T11:04:42.876Z,99408.69
2023-01-13T11:07:57.924Z,99412.44
2023-01-13T11:11:00.996Z,99422.75
2023-01-13T11:14:25.556Z,99418.25
2023-01-13T11:17:40.430Z,99427.00
2023-01-13T11:20:47.580Z,99420.63
2023-01-13T11:24:04.162Z,99440.59
2023-01-13T11:27:20.555Z,99443.06
2023-01-13T11:30:29.725Z,99430.72
2023-01-13T11:33:55.638Z,99433.97
2023-01-13T11:37:00.491Z,99434.66
2023-01-13T11:40:28.587Z,99447.97
2023-01-13T11:43:39.907Z,99428.69
2023-01-13T11:46:41.877Z,99444.69
2023-01-13T11:49:48.593Z,99443.19
2023-01-13T11:53:04.754Z,99440.50
2023-01-13T11:56:09.575Z,99439.91
2023-01-13T11:59:17.255Z,99424.69
2023-01-13T12:02:53.660Z,99427.81
2023-01-13T12:06:33.965Z,99420.34
2023-01-13T12:09:48.162Z,99425.91
2023-01-13T12:13:15.976Z,99419.44
2023-01-13T12:16:23.593Z,99418.78
2023-01-13T12:19:28.286Z,99426.63
2023-01-13T12:22:35.290Z,99417.56
2023-01-13T12:25:47.170Z,99431.91
2023-01-13T12:29:19.145Z,99430.66
2023-01-13T12:32:28.470Z,99433.88
2023-01-13T12:35:42.003Z,99429.13
2023-01-13T12:38:51.786Z,99428.84
2023-01-13T12:42:12.299Z,99432.03
2023-01-13T12:45:14.046Z,99427.41
2023-01-13T12:48:46.925Z,99420.28
2023-01-13T12:51:54.762Z,99437.34
2023-01-13T12:54:56.411Z,99433.34
2023-01-13T12:58:10.691Z,99435.09
2023-01-13T13:01:14.767Z,99424.66
2023-01-13T13:04:49.232Z,99417.78
2023-01-13T13:08:18.976Z,99422.09
2023-01-13T13:11:58.107Z,99436.38
2023-01-13T13:15:03.267Z,99436.22
2023-01-13T13:18:06.193Z,99432.16
2023-01-13T13:21:09.536Z,99443.53
2023-01-13T13:24:11.642Z,99439.66
2023-01-13T13:27:31.866Z,99462.56
2023-01-13T13:30:37.648Z,99460.03
2023-01-13T13:33:58.574Z,99486.88
2023-01-13T13:37:18.991Z,99509.50
2023-01-13T13:40:39.605Z,99525.00
2023-01-13T13:44:02.126Z,99539.06
2023-01-13T13:47:06.345Z,99545.72
2023-01-13T13:50:14.401Z,99561.28
2023-01-13T13:53:19.414Z,99554.84
2023-01-13T13:56:26.210Z,99543.16
2023-01-13T13:59:33.819Z,99549.69
2023-01-13T14:02:37.749Z,99556.25
2023-01-13T14:05:39.513Z,99553.09
2023-01-13T14:08:46.583Z,99554.81
2023-01-13T14:12:04.039Z,99552.94
2023-01-13T14:15:06.207Z,99552.59
2023-01-13T14:18:21.617Z,99563.25
2023-01-13T14:21:33.299Z,99561.13
2023-01-13T14:24:46.579Z,99558.34
2023-01-13T14:27:50.421Z,99563.00
2023-01-13T14:30:53.504Z,99557.69
2023-01-13T14:33:58.506Z,99552.88
2023-01-13T14:37:03.024Z,99573.00
2023-01-13T14:40:07.937Z,99566.81
2023-01-13T14:43:15.930Z,99562.13
2023-01-13T14:46:17.839Z,99565.59
2023-01-13T14:49:24.091Z,99575.34
2023-01-13T14:52:28.095Z,99571.22
2023-01-13T14:55:41.522Z,99573.09
2023-01-13T14:58:43.217Z,99583.63
2023-01-13T15:01:44.920Z,99572.41
2023-01-13T15:04:46.903Z,99589.81
2023-01-13T15:08:17.135Z,99585.81
2023-01-13T15:11:28.352Z,99587.56
2023-01-13T15:14:33.803Z,99580.31
2023-01-13T15:17:35.384Z,99588.63
2023-01-13T15:20:37.123Z,99600.47
2023-01-13T15:23:47.071Z,99601.75
2023-01-13T15:26:48.823Z,99602.81
2023-01-13T15:29:50.743Z,99617.00
2023-01-13T15:32:59.147Z,99629.28
2023-01-13T15:36:02.116Z,99621.28
2023-01-13T15:39:04.006Z,99615.22
2023-01-13T15:42:24.346Z,99610.09
2023-01-13T15:45:45.752Z,99614.78
2023-01-13T15:48:52.975Z,99638.16
2023-01-13T15:51:56.452Z,99638.88
2023-01-13T15:54:58.097Z,99648.09
2023-01-13T15:58:00.045Z,99648.31
2023-01-13T16:01:01.783Z,99649.59
2023-01-13T16:04:03.535Z,99666.44
2023-01-13T16:07:14.127Z,99673.09
2023-01-13T16:10:20.655Z,99658.25
2023-01-13T16:13:22.306Z,99675.09
2023-01-13T16:16:27.007Z,99666.91
2023-01-13T16:19:28.916Z,99678.13
2023-01-13T16:22:30.675Z,99693.91
2023-01-13T16:25:32.739Z,99692.84
2023-01-13T16:28:36.007Z,99698.81
2023-01-13T16:31:39.610Z,99708.75
2023-01-13T16:34:42.147Z,99709.31
2023-01-13T16:37:47.180Z,99712.03
2023-01-13T16:40:48.959Z,99706.19
2023-01-13T16:43:50.774Z,99704.66
2023-01-13T16:46:52.419Z,99722.53
2023-01-13T16:49:54.187Z,99727.94
2023-01-13T16:52:55.881Z,99722.19
2023-01-13T16:55:57.673Z,99736.78
2023-01-13T16:59:04.618Z,99733.88
2023-01-13T17:02:13.014Z,99752.72
2023-01-13T17:05:15.156Z,99725.34
2023-01-13T17:08:18.377Z,99734.59
2023-01-13T17:11:21.201Z,99745.44
2023-01-13T17:14:24.090Z,99737.59
2023-01-13T17:17:28.956Z,99745.13
2023-01-13T17:20:31.109Z,99762.53
2023-01-13T17:23:33.433Z,99769.56
2023-01-13T17:26:47.051Z,99774.34
2023-01-13T17:29:51.167Z,99780.34
2023-01-13T17:32:52.961Z,99780.81
2023-01-13T17:35:56.056Z,99808.72
2023-01-13T17:38:58.421Z,99800.91
2023-01-13T17:42:00.761Z,99813.28
2023-01-13T17:45:02.370Z,99808.94
2023-01-13T17:48:06.211Z,99811.03
2023-01-13T17:51:11.505Z,99808.22
2023-01-13T17:54:13.229Z,99811.91
2023-01-13T17:57:15.280Z,99803.06
2023-01-13T18:00:17.539Z,99814.25
2023-01-13T18:03:19.310Z,99821.22
2023-01-13T18:06:23.578Z,99817.78
2023-01-13T18:09:26.737Z,99820.81
2023-01-13T18:12:28.410Z,99821.50
2023-01-13T18:15:30.427Z,99838.41
2023-01-13T18:18:32.041Z,99853.34
2023-01-13T18:21:52.314Z,99848.84
2023-01-13T18:25:12.328Z,99861.53
2023-01-13T18:28:13.952Z,99887.13
2023-01-13T18:31:15.601Z,99889.19
2023-01-13T18:34:17.244Z,99894.03
2023-01-13T18:37:18.908Z,99904.41
2023-01-13T18:40:20.547Z,99901.84
2023-01-13T18:43:22.225Z,99910.50
2023-01-13T18:46:23.812Z,99898.38
2023-01-13T18:49:25.824Z,99902.56
2023-01-13T18:52:28.312Z,99888.09
2023-01-13T18:55:30.193Z,99902.50
2023-01-13T18:58:33.209Z,99926.63
2023-01-13T19:01:37.001Z,99905.34
2023-01-13T19:04:38.692Z,99910.63
2023-01-13T19:07:40.396Z,99909.81
2023-01-13T19:10:42.366Z,99915.16
2023-01-13T19:13:43.994Z,99917.72
2023-01-13T19:16:45.807Z,99922.72
2023-01-13T19:19:53.816Z,99924.19
2023-01-13T19:22:55.467Z,99938.97
2023-01-13T19:26:01.599Z,99931.84
2023-01-13T19:29:03.240Z,99930.50
2023-01-13T19:32:06.636Z,99935.00
2023-01-13T19:35:09.039Z,99936.38
2023-01-13T19:38:10.663Z,99929.09
2023-01-13T19:41:32.329Z,99935.56
2023-01-13T19:44:53.329Z,99956.81
2023-01-13T19:47:55.939Z,99965.94
2023-01-13T19:50:58.961Z,99963.56
2023-01-13T19:54:01.478Z,99967.88
2023-01-13T19:57:03.854Z,99960.66
2023-01-13T20:00:07.948Z,99969.00
2023-01-13T20:03:24.182Z,99968.06
2023-01-13T20:06:26.021Z,99974.84
2023-01-13T20:09:29.543Z,99977.84
2023-01-13T20:12:31.258Z,99979.19
2023-01-13T20:15:32.942Z,99982.47
2023-01-13T20:18:36.535Z,99988.34
2023-01-13T20:21:39.885Z,99993.69
2023-01-13T20:24:41.774Z,100005.50
2023-01-13T20:27:44.417Z,100002.50
2023-01-13T20:30:46.521Z,100000.53
2023-01-13T20:33:54.264Z,100003.69
2023-01-13T20:36:56.520Z,100013.97
2023-01-13T20:40:01.582Z,100012.00
2023-01-13T20:43:03.874Z,100017.13
2023-01-13T20:46:05.452Z,100020.59
2023-01-13T20:49:09.523Z,100015.94
2023-01-13T20:52:11.389Z,100022.56
2023-01-13T20:55:13.665Z,100036.97
2023-01-13T20:58:15.356Z,100025.44
2023-01-13T21:01:17.289Z,100039.00
2023-01-13T21:04:24.375Z,100025.69
2023-01-13T21:07:26.041Z,100036.09
2023-01-13T21:10:27.640Z,100035.34
2023-01-13T21:13:47.967Z,100049.75
2023-01-13T21:16:49.854Z,100049.03
2023-01-13T21:19:51.529Z,100076.72
2023-01-13T21:22:53.184Z,100065.91
2023-01-13T21:25:54.919Z,100063.09
2023-01-13T21:28:58.482Z,100080.50
2023-01-13T21:32:00.627Z,100068.78
2023-01-13T21:35:02.346Z,100074.50
2023-01-13T21:38:04.159Z,100082.13
2023-01-13T21:41:08.583Z,100081.78
2023-01-13T21:44:34.409Z,100104.03
2023-01-13T21:47:54.259Z,100094.16
2023-01-13T21:51:01.513Z,100096.53
2023-01-13T21:54:03.517Z,100102.31
2023-01-13T21:57:05.164Z,100115.28
2023-01-13T22:00:07.652Z,100115.78
2023-01-13T22:03:10.621Z,100147.72
2023-01-13T22:06:12.271Z,100129.63
2023-01-13T22:09:13.992Z,100113.41
2023-01-13T22:12:22.783Z,100128.38
2023-01-13T22:15:27.320Z,100126.31
2023-01-13T22:18:29.140Z,100159.16
2023-01-13T22:21:30.942Z,100180.03
2023-01-13T22:24:32.721Z,100161.22
2023-01-13T22:27:40.715Z,100153.91
2023-01-13T22:30:42.553Z,100163.88
2023-01-13T22:33:47.991Z,100177.91
2023-01-13T22:36:49.606Z,100170.59
2023-01-13T22:39:51.327Z,100174.41
2023-01-13T22:42:53.109Z,100180.97
2023-01-13T22:46:07.774Z,100183.44
2023-01-13T22:49:11.628Z,100206.78
2023-01-13T22:52:19.464Z,100202.03
2023-01-13T22:55:21.282Z,100205.63
2023-01-13T22:58:23.893Z,100210.88
2023-01-13T23:01:28.051Z,100215.38
2023-01-13T23:04:29.973Z,100213.13
2023-01-13T23:07:31.473Z,100222.56
2023-01-13T23:10:34.012Z,100205.09
2023-01-13T23:13:37.799Z,100226.59
2023-01-13T23:16:40.785Z,100226.84
2023-01-13T23:19:42.358Z,100219.00
2023-01-13T23:22:44.222Z,100215.84
2023-01-13T23:25:51.118Z,100226.41
2023-01-13T23:28:52.832Z,100222.03
2023-01-13T23:31:54.499Z,100236.13
2023-01-13T23:34:56.164Z,100215.19
2023-01-13T23:37:57.826Z,100227.19
2023-01-13T23:40:59.752Z,100227.19
2023-01-13T23:44:01.892Z,100232.84
2023-01-13T23:47:03.707Z,100235.56
2023-01-13T23:50:05.637Z,100233.81
2023-01-13T23:53:07.408Z,100237.72
2023-01-13T23:56:15.496Z,100238.66
2023-01-13T23:59:17.327Z,100239.56
